Terminal Aerodrome Forecast
Issued by NWS Wakefield, VA

Home | Current Version | Previous Version | Text Only | Print | Product List | Glossary On
Versions: 1 2 3 4 5 6 7 8 9 10 11 12
285
FTUS41 KAKQ 231120
TAFECG
TAF
KECG 231120Z 2312/2412 18012KT P6SM SCT030 BKN080 WS020/20045KT
     FM231400 19015G25KT 6SM -SHRA BKN020 BKN040 WS020/19045KT
     FM231600 20017G28KT 3SM SHRA VCTS OVC020CB
     FM231800 20015G24KT P6SM VCSH BKN025
     FM232000 22015G23KT P6SM BKN080
     FM232200 23012KT P6SM SCT120
     FM240200 26008KT P6SM SKC=

USA.gov is the U.S. government's official web portal to all federal, state and local government web resources and services.